Time;durP1;ratioP1;P1;durP2;ratioP2;P2;SDS_P1;SDS_P2;PMS_P1;PMS_P2;Temp;Humidity;BMP_temperature;BMP_pressure;BME280_temperature;BME280_humidity;BME280_pressure;Samples;Min_cycle;Max_cycle;Signal;HPM_P1;HPM_P2
2023/04/13 00:02:38;;;;;;;1.53;0.90;;;;;;;;;;4993428;28;20213;-71
2023/04/13 00:05:43;;;;;;;1.20;0.90;;;;;;;;;;4993475;28;20524;-71
2023/04/13 00:08:47;;;;;;;1.63;0.90;;;;;;;;;;4993841;28;20190;-70
2023/04/13 00:11:51;;;;;;;1.10;0.93;;;;;;;;;;4993808;28;20222;-71
2023/04/13 00:14:55;;;;;;;1.23;0.87;;;;;;;;;;4993660;28;20182;-71
2023/04/13 00:18:00;;;;;;;4.80;1.00;;;;;;;;;;4993381;28;20643;-71
2023/04/13 00:21:05;;;;;;;1.47;1.00;;;;;;;;;;4993463;28;20222;-71
2023/04/13 00:24:09;;;;;;;0.70;0.60;;;;;;;;;;4993540;28;20190;-71
2023/04/13 00:27:14;;;;;;;0.53;0.40;;;;;;;;;;5003810;28;20190;-71
2023/04/13 00:30:20;;;;;;;1.60;0.67;;;;;;;;;;4996228;28;20186;-71
2023/04/13 00:33:24;;;;;;;0.60;0.40;;;;;;;;;;5020220;28;20212;-71
2023/04/13 00:36:28;;;;;;;1.57;0.50;;;;;;;;;;5035532;28;20527;-71
2023/04/13 00:39:33;;;;;;;2.30;0.60;;;;;;;;;;5024185;28;20205;-71
2023/04/13 00:42:38;;;;;;;5.20;0.60;;;;;;;;;;5047063;28;20692;-71
2023/04/13 00:45:42;;;;;;;0.30;0.30;;;;;;;;;;5036338;28;20629;-71
2023/04/13 00:48:47;;;;;;;1.03;0.50;;;;;;;;;;5035545;28;20189;-71
2023/04/13 00:51:51;;;;;;;0.60;0.40;;;;;;;;;;5035276;28;20224;-71
2023/04/13 00:54:56;;;;;;;1.80;0.50;;;;;;;;;;5036220;28;20189;-71
2023/04/13 00:58:00;;;;;;;0.43;0.40;;;;;;;;;;5035359;28;20188;-70
2023/04/13 01:01:05;;;;;;;1.13;0.40;;;;;;;;;;5034945;28;20709;-71
2023/04/13 01:04:12;;;;;;;1.47;0.50;;;;;;;;;;5034980;28;20185;-70
2023/04/13 01:07:23;;;;;;;1.07;0.40;;;;;;;;;;5035215;28;20638;-70
2023/04/13 01:10:41;;;;;;;0.60;0.50;;;;;;;;;;5035538;28;20185;-71
2023/04/13 01:13:57;;;;;;;1.90;0.50;;;;;;;;;;5035026;28;20182;-71
2023/04/13 01:17:07;;;;;;;0.40;0.40;;;;;;;;;;5034734;28;20189;-70
2023/04/13 01:20:14;;;;;;;0.73;0.40;;;;;;;;;;5034957;28;20189;-70
2023/04/13 01:23:55;;;;;;;0.90;0.80;;;;;;;;;;5034946;28;20184;-70
2023/04/13 01:27:41;;;;;;;1.60;0.40;;;;;;;;;;5015439;28;20275;-70
2023/04/13 01:30:46;;;;;;;0.33;0.30;;;;;;;;;;5034621;28;20220;-71
2023/04/13 01:33:51;;;;;;;0.60;0.50;;;;;;;;;;5035875;28;20208;-70
2023/04/13 01:36:55;;;;;;;2.13;0.47;;;;;;;;;;5046087;28;20185;-71
2023/04/13 01:39:59;;;;;;;0.30;0.30;;;;;;;;;;5011702;28;20188;-71
2023/04/13 01:43:15;;;;;;;0.50;0.50;;;;;;;;;;5023115;28;20193;-69
2023/04/13 01:46:50;;;;;;;0.40;0.40;;;;;;;;;;5035210;28;20176;-70
2023/04/13 01:50:24;;;;;;;0.70;0.50;;;;;;;;;;5034915;28;20185;-70
2023/04/13 01:54:11;;;;;;;2.37;0.47;;;;;;;;;;5022973;28;20185;-70
2023/04/13 01:57:17;;;;;;;0.50;0.40;;;;;;;;;;5034017;28;20181;-70
2023/04/13 02:00:30;;;;;;;0.97;0.57;;;;;;;;;;5034178;28;20176;-70
2023/04/13 02:03:37;;;;;;;0.30;0.30;;;;;;;;;;5033859;28;20197;-70
2023/04/13 02:06:42;;;;;;;1.17;0.47;;;;;;;;;;5034103;28;20189;-70
2023/04/13 02:09:47;;;;;;;1.33;0.50;;;;;;;;;;5034686;28;20185;-70
2023/04/13 02:12:54;;;;;;;2.20;0.50;;;;;;;;;;5033612;28;20205;-70
2023/04/13 02:15:59;;;;;;;0.40;0.40;;;;;;;;;;5033667;28;20189;-70
2023/04/13 02:19:03;;;;;;;0.57;0.40;;;;;;;;;;5033625;28;20204;-70
2023/04/13 02:22:07;;;;;;;0.70;0.40;;;;;;;;;;5033494;28;20212;-70
2023/04/13 02:25:12;;;;;;;0.63;0.40;;;;;;;;;;5033428;28;20200;-70
2023/04/13 02:28:16;;;;;;;1.27;0.50;;;;;;;;;;5033424;28;20189;-70
2023/04/13 02:31:22;;;;;;;0.40;0.40;;;;;;;;;;5033151;28;20225;-70
2023/04/13 02:34:26;;;;;;;1.40;0.37;;;;;;;;;;5033877;28;20181;-70
2023/04/13 02:37:31;;;;;;;0.50;0.30;;;;;;;;;;5034301;28;20185;-70
2023/04/13 02:40:37;;;;;;;0.73;0.50;;;;;;;;;;5033371;28;20189;-70
2023/04/13 02:43:42;;;;;;;1.70;0.50;;;;;;;;;;5022048;28;20185;-70
2023/04/13 02:46:46;;;;;;;0.90;0.60;;;;;;;;;;5033173;28;20646;-70
2023/04/13 02:49:54;;;;;;;0.90;0.60;;;;;;;;;;5021699;28;20189;-70
2023/04/13 02:53:06;;;;;;;1.73;0.50;;;;;;;;;;5032828;28;20681;-70
2023/04/13 02:56:11;;;;;;;0.60;0.50;;;;;;;;;;5032883;28;20180;-70
2023/04/13 02:59:15;;;;;;;0.70;0.50;;;;;;;;;;5021800;28;20185;-70
2023/04/13 03:02:20;;;;;;;1.43;0.57;;;;;;;;;;5032766;28;20216;-70
2023/04/13 03:05:25;;;;;;;0.60;0.50;;;;;;;;;;5044523;28;20181;-70
2023/04/13 03:08:29;;;;;;;1.03;0.53;;;;;;;;;;5021919;28;20357;-70
2023/04/13 03:11:47;;;;;;;0.83;0.60;;;;;;;;;;5032483;28;20224;-70
2023/04/13 03:14:55;;;;;;;0.87;0.60;;;;;;;;;;5021228;28;20197;-70
2023/04/13 03:18:03;;;;;;;0.90;0.60;;;;;;;;;;5032749;28;20181;-70
2023/04/13 03:21:08;;;;;;;1.33;0.70;;;;;;;;;;5021681;28;20216;-70
2023/04/13 03:24:33;;;;;;;0.70;0.50;;;;;;;;;;5032598;28;20181;-71
2023/04/13 03:27:42;;;;;;;1.57;0.77;;;;;;;;;;5021297;28;20185;-70
2023/04/13 03:30:46;;;;;;;1.20;0.80;;;;;;;;;;5043654;28;20216;-71
2023/04/13 03:33:51;;;;;;;2.33;0.90;;;;;;;;;;5032894;28;20689;-70
2023/04/13 03:36:56;;;;;;;2.20;0.80;;;;;;;;;;5032290;28;20177;-70
2023/04/13 03:40:00;;;;;;;1.20;0.87;;;;;;;;;;5032217;28;20193;-70
2023/04/13 03:43:06;;;;;;;1.33;0.70;;;;;;;;;;5021165;28;20185;-70
2023/04/13 03:46:15;;;;;;;2.10;0.60;;;;;;;;;;5010300;28;20181;-70
2023/04/13 03:49:19;;;;;;;0.80;0.67;;;;;;;;;;5032424;28;20333;-70
2023/04/13 03:52:24;;;;;;;2.30;0.60;;;;;;;;;;5020923;28;20224;-71
2023/04/13 03:55:34;;;;;;;1.47;0.60;;;;;;;;;;5021789;28;20181;-70
2023/04/13 03:58:43;;;;;;;2.03;0.53;;;;;;;;;;5043481;28;20181;-70
2023/04/13 04:01:49;;;;;;;0.70;0.50;;;;;;;;;;5044003;28;20697;-70
2023/04/13 04:04:53;;;;;;;1.23;0.73;;;;;;;;;;5025006;28;20546;-70
2023/04/13 04:07:59;;;;;;;2.33;0.50;;;;;;;;;;5036311;28;20652;-71
2023/04/13 04:11:04;;;;;;;0.93;0.50;;;;;;;;;;5036057;28;20259;-70
2023/04/13 04:14:10;;;;;;;0.80;0.50;;;;;;;;;;5047831;28;20217;-70
2023/04/13 04:17:15;;;;;;;2.20;0.60;;;;;;;;;;5035876;28;20181;-70
2023/04/13 04:20:20;;;;;;;0.50;0.50;;;;;;;;;;5024852;28;20185;-70
2023/04/13 04:23:26;;;;;;;0.77;0.57;;;;;;;;;;5024530;28;20185;-70
2023/04/13 04:26:37;;;;;;;0.50;0.50;;;;;;;;;;5036250;28;20185;-70
2023/04/13 04:29:47;;;;;;;0.77;0.60;;;;;;;;;;5024667;28;20177;-70
